sensor_id;sensor_type;location;lat;lon;timestamp;pressure;altitude;pressure_sealevel;temperature;humidity
59789;BME280;47353;51.614;5.530;2023-02-17T00:00:51;101889.00;;;9.29;100.00
59789;BME280;47353;51.614;5.530;2023-02-17T00:03:17;101885.38;;;9.29;100.00
59789;BME280;47353;51.614;5.530;2023-02-17T00:05:42;101891.41;;;9.37;100.00
59789;BME280;47353;51.614;5.530;2023-02-17T00:08:07;101899.78;;;9.42;100.00
59789;BME280;47353;51.614;5.530;2023-02-17T00:10:33;101893.19;;;9.43;100.00
59789;BME280;47353;51.614;5.530;2023-02-17T00:12:58;101886.06;;;9.47;100.00
59789;BME280;47353;51.614;5.530;2023-02-17T00:15:23;101891.47;;;9.54;100.00
59789;BME280;47353;51.614;5.530;2023-02-17T00:17:49;101880.16;;;9.55;100.00
59789;BME280;47353;51.614;5.530;2023-02-17T00:20:14;101897.84;;;9.54;100.00
59789;BME280;47353;51.614;5.530;2023-02-17T00:22:39;101880.59;;;9.64;100.00
59789;BME280;47353;51.614;5.530;2023-02-17T00:25:05;101882.91;;;9.67;100.00
59789;BME280;47353;51.614;5.530;2023-02-17T00:27:30;101878.19;;;9.67;100.00
59789;BME280;47353;51.614;5.530;2023-02-17T00:29:56;101867.00;;;9.74;100.00
59789;BME280;47353;51.614;5.530;2023-02-17T00:32:21;101857.34;;;9.76;100.00
59789;BME280;47353;51.614;5.530;2023-02-17T00:34:47;101851.50;;;9.73;100.00
59789;BME280;47353;51.614;5.530;2023-02-17T00:37:12;101866.50;;;9.77;100.00
59789;BME280;47353;51.614;5.530;2023-02-17T00:39:37;101866.84;;;9.80;100.00
59789;BME280;47353;51.614;5.530;2023-02-17T00:42:03;101869.63;;;9.80;100.00
59789;BME280;47353;51.614;5.530;2023-02-17T00:44:28;101868.53;;;9.81;100.00
59789;BME280;47353;51.614;5.530;2023-02-17T00:46:54;101872.13;;;9.82;100.00
59789;BME280;47353;51.614;5.530;2023-02-17T00:49:24;101863.34;;;9.85;100.00
59789;BME280;47353;51.614;5.530;2023-02-17T00:51:50;101852.53;;;9.83;100.00
59789;BME280;47353;51.614;5.530;2023-02-17T00:54:16;101846.06;;;9.78;100.00
59789;BME280;47353;51.614;5.530;2023-02-17T00:56:41;101854.22;;;9.84;100.00
59789;BME280;47353;51.614;5.530;2023-02-17T00:59:08;101851.44;;;9.84;100.00
59789;BME280;47353;51.614;5.530;2023-02-17T01:01:34;101845.31;;;9.82;100.00
59789;BME280;47353;51.614;5.530;2023-02-17T01:04:00;101853.84;;;9.81;100.00
59789;BME280;47353;51.614;5.530;2023-02-17T01:06:32;101855.31;;;9.83;100.00
59789;BME280;47353;51.614;5.530;2023-02-17T01:08:58;101848.06;;;9.82;100.00
59789;BME280;47353;51.614;5.530;2023-02-17T01:11:29;101859.72;;;9.84;100.00
59789;BME280;47353;51.614;5.530;2023-02-17T01:13:55;101859.84;;;9.89;100.00
59789;BME280;47353;51.614;5.530;2023-02-17T01:16:26;101870.41;;;9.92;100.00
59789;BME280;47353;51.614;5.530;2023-02-17T01:18:52;101857.69;;;9.91;100.00
59789;BME280;47353;51.614;5.530;2023-02-17T01:21:23;101856.69;;;9.97;100.00
59789;BME280;47353;51.614;5.530;2023-02-17T01:23:54;101858.94;;;10.00;100.00
59789;BME280;47353;51.614;5.530;2023-02-17T01:26:24;101870.34;;;10.04;100.00
59789;BME280;47353;51.614;5.530;2023-02-17T01:28:50;101861.22;;;10.03;100.00
59789;BME280;47353;51.614;5.530;2023-02-17T01:31:16;101866.50;;;10.05;100.00
59789;BME280;47353;51.614;5.530;2023-02-17T01:33:42;101867.13;;;10.07;100.00
59789;BME280;47353;51.614;5.530;2023-02-17T01:36:09;101849.66;;;10.06;100.00
59789;BME280;47353;51.614;5.530;2023-02-17T01:38:36;101844.38;;;10.05;100.00
59789;BME280;47353;51.614;5.530;2023-02-17T01:41:02;101852.66;;;10.05;100.00
59789;BME280;47353;51.614;5.530;2023-02-17T01:43:28;101847.53;;;10.08;100.00
59789;BME280;47353;51.614;5.530;2023-02-17T01:45:58;101853.06;;;10.08;100.00
59789;BME280;47353;51.614;5.530;2023-02-17T01:48:28;101842.81;;;10.09;100.00
59789;BME280;47353;51.614;5.530;2023-02-17T01:51:01;101853.13;;;10.13;100.00
59789;BME280;47353;51.614;5.530;2023-02-17T01:53:34;101842.31;;;10.12;100.00
59789;BME280;47353;51.614;5.530;2023-02-17T01:56:00;101847.03;;;10.12;100.00
59789;BME280;47353;51.614;5.530;2023-02-17T01:58:27;101847.13;;;10.05;100.00
59789;BME280;47353;51.614;5.530;2023-02-17T02:00:55;101842.81;;;10.09;100.00
59789;BME280;47353;51.614;5.530;2023-02-17T02:03:23;101858.19;;;10.05;100.00
59789;BME280;47353;51.614;5.530;2023-02-17T02:05:50;101850.28;;;10.08;100.00
59789;BME280;47353;51.614;5.530;2023-02-17T02:08:15;101853.47;;;10.05;100.00
59789;BME280;47353;51.614;5.530;2023-02-17T02:10:41;101856.19;;;10.00;100.00
59789;BME280;47353;51.614;5.530;2023-02-17T02:13:07;101856.69;;;9.97;100.00
59789;BME280;47353;51.614;5.530;2023-02-17T02:15:44;101865.03;;;10.02;100.00
59789;BME280;47353;51.614;5.530;2023-02-17T02:21:14;101862.53;;;10.01;100.00
59789;BME280;47353;51.614;5.530;2023-02-17T02:24:01;101833.81;;;10.02;100.00
59789;BME280;47353;51.614;5.530;2023-02-17T02:34:23;101817.63;;;9.94;100.00
59789;BME280;47353;51.614;5.530;2023-02-17T02:37:09;101816.00;;;9.98;100.00
59789;BME280;47353;51.614;5.530;2023-02-17T02:39:40;101812.94;;;9.94;100.00
59789;BME280;47353;51.614;5.530;2023-02-17T02:42:12;101816.75;;;9.93;100.00
59789;BME280;47353;51.614;5.530;2023-02-17T02:44:38;101791.81;;;9.88;100.00
59789;BME280;47353;51.614;5.530;2023-02-17T02:47:33;101786.28;;;9.88;100.00
59789;BME280;47353;51.614;5.530;2023-02-17T02:49:51;101784.31;;;9.89;100.00
59789;BME280;47353;51.614;5.530;2023-02-17T02:52:27;101773.88;;;9.91;100.00
59789;BME280;47353;51.614;5.530;2023-02-17T02:55:08;101784.47;;;9.82;100.00
59789;BME280;47353;51.614;5.530;2023-02-17T02:57:38;101775.13;;;9.83;100.00
59789;BME280;47353;51.614;5.530;2023-02-17T03:02:47;101777.53;;;9.80;100.00
59789;BME280;47353;51.614;5.530;2023-02-17T03:05:49;101761.53;;;9.82;100.00
59789;BME280;47353;51.614;5.530;2023-02-17T03:08:26;101784.97;;;9.79;100.00
59789;BME280;47353;51.614;5.530;2023-02-17T03:10:53;101776.38;;;9.76;100.00
59789;BME280;47353;51.614;5.530;2023-02-17T03:13:19;101772.59;;;9.82;100.00
59789;BME280;47353;51.614;5.530;2023-02-17T03:15:46;101774.16;;;9.78;100.00
59789;BME280;47353;51.614;5.530;2023-02-17T03:18:12;101791.84;;;9.77;100.00
59789;BME280;47353;51.614;5.530;2023-02-17T03:20:45;101760.94;;;9.80;100.00
59789;BME280;47353;51.614;5.530;2023-02-17T03:23:13;101775.25;;;9.77;100.00
59789;BME280;47353;51.614;5.530;2023-02-17T03:25:39;101777.69;;;9.73;100.00
59789;BME280;47353;51.614;5.530;2023-02-17T03:28:04;101786.31;;;9.77;100.00
59789;BME280;47353;51.614;5.530;2023-02-17T03:30:30;101779.69;;;9.78;100.00
59789;BME280;47353;51.614;5.530;2023-02-17T03:32:55;101771.75;;;9.81;100.00
59789;BME280;47353;51.614;5.530;2023-02-17T03:35:20;101772.25;;;9.78;100.00
59789;BME280;47353;51.614;5.530;2023-02-17T03:37:46;101762.84;;;9.79;100.00
59789;BME280;47353;51.614;5.530;2023-02-17T03:40:11;101763.34;;;9.76;100.00
59789;BME280;47353;51.614;5.530;2023-02-17T03:42:36;101762.03;;;9.79;100.00
59789;BME280;47353;51.614;5.530;2023-02-17T03:45:02;101762.53;;;9.76;100.00
59789;BME280;47353;51.614;5.530;2023-02-17T03:47:28;101769.75;;;9.77;100.00
59789;BME280;47353;51.614;5.530;2023-02-17T03:49:53;101753.75;;;9.79;100.00
59789;BME280;47353;51.614;5.530;2023-02-17T03:52:19;101755.16;;;9.81;100.00
59789;BME280;47353;51.614;5.530;2023-02-17T03:54:44;101741.25;;;9.76;100.00
59789;BME280;47353;51.614;5.530;2023-02-17T03:57:10;101748.22;;;9.79;100.00
59789;BME280;47353;51.614;5.530;2023-02-17T03:59:35;101760.03;;;9.74;100.00
59789;BME280;47353;51.614;5.530;2023-02-17T04:02:01;101758.00;;;9.70;100.00
59789;BME280;47353;51.614;5.530;2023-02-17T04:04:27;101764.22;;;9.77;100.00
59789;BME280;47353;51.614;5.530;2023-02-17T04:06:52;101765.38;;;9.81;100.00
59789;BME280;47353;51.614;5.530;2023-02-17T04:09:17;101759.84;;;9.81;100.00
59789;BME280;47353;51.614;5.530;2023-02-17T04:11:43;101773.09;;;9.79;100.00
59789;BME280;47353;51.614;5.530;2023-02-17T04:14:08;101778.53;;;9.74;100.00
59789;BME280;47353;51.614;5.530;2023-02-17T04:16:34;101750.97;;;9.79;100.00
59789;BME280;47353;51.614;5.530;2023-02-17T04:18:59;101752.81;;;9.73;100.00
59789;BME280;47353;51.614;5.530;2023-02-17T04:21:25;101752.28;;;9.76;100.00
59789;BME280;47353;51.614;5.530;2023-02-17T04:23:50;101762.34;;;9.82;100.00
59789;BME280;47353;51.614;5.530;2023-02-17T04:26:16;101759.19;;;9.74;100.00
59789;BME280;47353;51.614;5.530;2023-02-17T04:28:42;101761.53;;;9.82;100.00
59789;BME280;47353;51.614;5.530;2023-02-17T04:31:08;101777.94;;;9.72;100.00
59789;BME280;47353;51.614;5.530;2023-02-17T04:33:34;101763.59;;;9.75;100.00
59789;BME280;47353;51.614;5.530;2023-02-17T04:36:00;101751.28;;;9.66;100.00
59789;BME280;47353;51.614;5.530;2023-02-17T04:38:30;101768.72;;;9.66;100.00
59789;BME280;47353;51.614;5.530;2023-02-17T04:40:57;101773.66;;;9.64;100.00
59789;BME280;47353;51.614;5.530;2023-02-17T04:43:24;101763.44;;;9.65;100.00
59789;BME280;47353;51.614;5.530;2023-02-17T04:45:50;101767.63;;;9.67;100.00
59789;BME280;47353;51.614;5.530;2023-02-17T04:48:16;101775.75;;;9.74;100.00
59789;BME280;47353;51.614;5.530;2023-02-17T04:50:41;101780.84;;;9.65;100.00
59789;BME280;47353;51.614;5.530;2023-02-17T04:53:07;101774.50;;;9.65;100.00
59789;BME280;47353;51.614;5.530;2023-02-17T04:55:32;101766.56;;;9.68;100.00
59789;BME280;47353;51.614;5.530;2023-02-17T04:57:58;101770.13;;;9.69;100.00
59789;BME280;47353;51.614;5.530;2023-02-17T05:00:23;101759.69;;;9.71;100.00
59789;BME280;47353;51.614;5.530;2023-02-17T05:02:49;101745.50;;;9.67;100.00
59789;BME280;47353;51.614;5.530;2023-02-17T05:05:14;101757.16;;;9.69;100.00
59789;BME280;47353;51.614;5.530;2023-02-17T05:07:41;101745.34;;;9.74;100.00
59789;BME280;47353;51.614;5.530;2023-02-17T05:10:07;101753.31;;;9.70;100.00
59789;BME280;47353;51.614;5.530;2023-02-17T05:12:33;101755.97;;;9.65;100.00
59789;BME280;47353;51.614;5.530;2023-02-17T05:14:59;101741.81;;;9.62;100.00
59789;BME280;47353;51.614;5.530;2023-02-17T05:17:25;101739.88;;;9.62;100.00
59789;BME280;47353;51.614;5.530;2023-02-17T05:19:50;101735.78;;;9.65;100.00
59789;BME280;47353;51.614;5.530;2023-02-17T05:22:16;101736.28;;;9.62;100.00
59789;BME280;47353;51.614;5.530;2023-02-17T05:24:41;101745.09;;;9.59;100.00
59789;BME280;47353;51.614;5.530;2023-02-17T05:27:07;101745.16;;;9.64;100.00
59789;BME280;47353;51.614;5.530;2023-02-17T05:29:33;101747.00;;;9.58;100.00
59789;BME280;47353;51.614;5.530;2023-02-17T05:31:59;101753.94;;;9.61;100.00
59789;BME280;47353;51.614;5.530;2023-02-17T05:34:24;101747.66;;;9.65;100.00
59789;BME280;47353;51.614;5.530;2023-02-17T05:36:49;101745.34;;;9.74;100.00
59789;BME280;47353;51.614;5.530;2023-02-17T05:39:15;101746.44;;;9.73;100.00
59789;BME280;47353;51.614;5.530;2023-02-17T05:41:40;101766.56;;;9.68;100.00
59789;BME280;47353;51.614;5.530;2023-02-17T05:44:05;101755.41;;;9.63;100.00
59789;BME280;47353;51.614;5.530;2023-02-17T05:46:31;101761.59;;;9.70;100.00
59789;BME280;47353;51.614;5.530;2023-02-17T05:48:56;101766.63;;;9.73;100.00
59789;BME280;47353;51.614;5.530;2023-02-17T05:51:22;101775.16;;;9.72;100.00
59789;BME280;47353;51.614;5.530;2023-02-17T05:53:47;101768.47;;;9.68;100.00
59789;BME280;47353;51.614;5.530;2023-02-17T05:56:12;101766.88;;;9.72;100.00
59789;BME280;47353;51.614;5.530;2023-02-17T05:58:38;101769.63;;;9.72;100.00
59789;BME280;47353;51.614;5.530;2023-02-17T06:01:08;101766.31;;;9.70;100.00
59789;BME280;47353;51.614;5.530;2023-02-17T06:03:34;101763.78;;;9.68;100.00
59789;BME280;47353;51.614;5.530;2023-02-17T06:05:59;101763.03;;;9.73;100.00
59789;BME280;47353;51.614;5.530;2023-02-17T06:08:25;101750.78;;;9.69;100.00
59789;BME280;47353;51.614;5.530;2023-02-17T06:10:52;101729.25;;;9.54;100.00
59789;BME280;47353;51.614;5.530;2023-02-17T06:13:17;101737.19;;;9.51;100.00
59789;BME280;47353;51.614;5.530;2023-02-17T06:15:43;101746.47;;;9.45;100.00
59789;BME280;47353;51.614;5.530;2023-02-17T06:18:08;101741.19;;;9.43;100.00
59789;BME280;47353;51.614;5.530;2023-02-17T06:20:34;101747.53;;;9.44;100.00
59789;BME280;47353;51.614;5.530;2023-02-17T06:22:59;101737.94;;;9.46;100.00
59789;BME280;47353;51.614;5.530;2023-02-17T06:25:24;101733.16;;;9.42;100.00
59789;BME280;47353;51.614;5.530;2023-02-17T06:27:50;101762.22;;;9.44;100.00
59789;BME280;47353;51.614;5.530;2023-02-17T06:30:15;101739.09;;;9.50;100.00
59789;BME280;47353;51.614;5.530;2023-02-17T06:32:42;101749.41;;;9.55;100.00
59789;BME280;47353;51.614;5.530;2023-02-17T06:35:07;101741.72;;;9.57;100.00
59789;BME280;47353;51.614;5.530;2023-02-17T06:37:33;101738.31;;;9.66;100.00
59789;BME280;47353;51.614;5.530;2023-02-17T06:39:58;101733.38;;;9.68;100.00
59789;BME280;47353;51.614;5.530;2023-02-17T06:42:23;101739.16;;;9.67;100.00
59789;BME280;47353;51.614;5.530;2023-02-17T06:44:49;101726.50;;;9.71;100.00
59789;BME280;47353;51.614;5.530;2023-02-17T06:47:15;101734.78;;;9.71;100.00
59789;BME280;47353;51.614;5.530;2023-02-17T06:49:40;101749.78;;;9.75;100.00
59789;BME280;47353;51.614;5.530;2023-02-17T06:52:05;101729.53;;;9.69;100.00
59789;BME280;47353;51.614;5.530;2023-02-17T06:54:31;101738.72;;;9.75;100.00
59789;BME280;47353;51.614;5.530;2023-02-17T06:56:56;101740.75;;;9.79;100.00
59789;BME280;47353;51.614;5.530;2023-02-17T06:59:22;101738.22;;;9.78;100.00
59789;BME280;47353;51.614;5.530;2023-02-17T07:01:47;101743.84;;;9.83;100.00
59789;BME280;47353;51.614;5.530;2023-02-17T07:04:14;101743.34;;;9.86;100.00
59789;BME280;47353;51.614;5.530;2023-02-17T07:06:40;101730.03;;;9.83;100.00
59789;BME280;47353;51.614;5.530;2023-02-17T07:09:05;101746.72;;;9.88;100.00
59789;BME280;47353;51.614;5.530;2023-02-17T07:11:31;101758.13;;;9.91;100.00
59789;BME280;47353;51.614;5.530;2023-02-17T07:13:57;101747.88;;;9.92;100.00
59789;BME280;47353;51.614;5.530;2023-02-17T07:16:23;101734.91;;;9.92;100.00
59789;BME280;47353;51.614;5.530;2023-02-17T07:18:49;101749.31;;;9.94;100.00
59789;BME280;47353;51.614;5.530;2023-02-17T07:21:15;101746.56;;;9.94;100.00
59789;BME280;47353;51.614;5.530;2023-02-17T07:23:40;101752.16;;;9.99;100.00
59789;BME280;47353;51.614;5.530;2023-02-17T07:26:10;101743.59;;;10.01;100.00
59789;BME280;47353;51.614;5.530;2023-02-17T07:28:37;101745.84;;;10.04;100.00
59789;BME280;47353;51.614;5.530;2023-02-17T07:31:12;101722.41;;;10.06;100.00
59789;BME280;47353;51.614;5.530;2023-02-17T07:33:39;101723.03;;;10.08;100.00
59789;BME280;47353;51.614;5.530;2023-02-17T07:36:21;101734.41;;;10.12;100.00
59789;BME280;47353;51.614;5.530;2023-02-17T07:38:47;101736.41;;;10.17;100.00
59789;BME280;47353;51.614;5.530;2023-02-17T07:41:15;101726.19;;;10.17;100.00
59789;BME280;47353;51.614;5.530;2023-02-17T07:43:41;101726.19;;;10.17;100.00
59789;BME280;47353;51.614;5.530;2023-02-17T07:46:07;101727.63;;;10.20;100.00
59789;BME280;47353;51.614;5.530;2023-02-17T07:48:34;101718.31;;;10.26;100.00
59789;BME280;47353;51.614;5.530;2023-02-17T07:51:06;101738.00;;;10.29;100.00
59789;BME280;47353;51.614;5.530;2023-02-17T07:53:32;101730.91;;;10.33;100.00
59789;BME280;47353;51.614;5.530;2023-02-17T07:55:57;101727.78;;;10.30;100.00
59789;BME280;47353;51.614;5.530;2023-02-17T07:58:22;101725.09;;;10.35;100.00
59789;BME280;47353;51.614;5.530;2023-02-17T08:00:48;101730.94;;;10.38;100.00
59789;BME280;47353;51.614;5.530;2023-02-17T08:03:13;101710.75;;;10.38;100.00
59789;BME280;47353;51.614;5.530;2023-02-17T08:05:39;101714.94;;;10.40;100.00
59789;BME280;47353;51.614;5.530;2023-02-17T08:08:11;101751.00;;;10.45;100.00
59789;BME280;47353;51.614;5.530;2023-02-17T08:10:59;101731.19;;;10.53;100.00
59789;BME280;47353;51.614;5.530;2023-02-17T08:13:44;101773.03;;;10.57;100.00
59789;BME280;47353;51.614;5.530;2023-02-17T08:16:11;101742.31;;;10.58;100.00
59789;BME280;47353;51.614;5.530;2023-02-17T08:18:36;101731.31;;;10.63;100.00
59789;BME280;47353;51.614;5.530;2023-02-17T08:21:03;101723.28;;;10.62;100.00
59789;BME280;47353;51.614;5.530;2023-02-17T08:23:28;101741.81;;;10.61;100.00
59789;BME280;47353;51.614;5.530;2023-02-17T08:25:56;101739.13;;;10.66;100.00
59789;BME280;47353;51.614;5.530;2023-02-17T08:28:22;101741.09;;;10.71;100.00
59789;BME280;47353;51.614;5.530;2023-02-17T08:30:47;101739.00;;;10.78;100.00
59789;BME280;47353;51.614;5.530;2023-02-17T08:33:13;101754.69;;;10.72;100.00
59789;BME280;47353;51.614;5.530;2023-02-17T08:35:43;101757.81;;;10.76;100.00
59789;BME280;47353;51.614;5.530;2023-02-17T08:38:08;101758.41;;;10.78;100.00
59789;BME280;47353;51.614;5.530;2023-02-17T08:40:33;101759.22;;;10.78;100.00
59789;BME280;47353;51.614;5.530;2023-02-17T08:42:59;101750.13;;;10.83;100.00
59789;BME280;47353;51.614;5.530;2023-02-17T08:45:24;101760.94;;;10.84;100.00
59789;BME280;47353;51.614;5.530;2023-02-17T08:47:50;101764.56;;;10.85;100.00
59789;BME280;47353;51.614;5.530;2023-02-17T08:50:15;101757.44;;;10.89;100.00
59789;BME280;47353;51.614;5.530;2023-02-17T08:52:41;101768.56;;;10.94;100.00
59789;BME280;47353;51.614;5.530;2023-02-17T08:55:06;101762.50;;;10.97;100.00
59789;BME280;47353;51.614;5.530;2023-02-17T08:57:32;101780.09;;;11.07;100.00
59789;BME280;47353;51.614;5.530;2023-02-17T08:59:58;101774.00;;;11.05;100.00
59789;BME280;47353;51.614;5.530;2023-02-17T09:02:23;101773.91;;;11.00;100.00
59789;BME280;47353;51.614;5.530;2023-02-17T09:04:49;101776.50;;;11.07;100.00
59789;BME280;47353;51.614;5.530;2023-02-17T09:07:14;101789.00;;;11.09;100.00
59789;BME280;47353;51.614;5.530;2023-02-17T09:09:41;101763.81;;;11.11;100.00
59789;BME280;47353;51.614;5.530;2023-02-17T09:12:06;101778.84;;;11.15;100.00
59789;BME280;47353;51.614;5.530;2023-02-17T09:14:32;101780.25;;;11.17;100.00
59789;BME280;47353;51.614;5.530;2023-02-17T09:16:58;101790.38;;;11.28;100.00
59789;BME280;47353;51.614;5.530;2023-02-17T09:19:24;101797.91;;;11.33;100.00
59789;BME280;47353;51.614;5.530;2023-02-17T09:21:51;101808.66;;;11.29;100.00
59789;BME280;47353;51.614;5.530;2023-02-17T09:24:16;101801.72;;;11.27;100.00
59789;BME280;47353;51.614;5.530;2023-02-17T09:26:42;101808.31;;;11.26;100.00
59789;BME280;47353;51.614;5.530;2023-02-17T09:29:07;101809.25;;;11.31;100.00
59789;BME280;47353;51.614;5.530;2023-02-17T09:31:34;101820.16;;;11.38;100.00
59789;BME280;47353;51.614;5.530;2023-02-17T09:34:00;101804.06;;;11.40;100.00
59789;BME280;47353;51.614;5.530;2023-02-17T09:36:30;101798.00;;;11.43;100.00
59789;BME280;47353;51.614;5.530;2023-02-17T09:38:57;101798.34;;;11.46;100.00
59789;BME280;47353;51.614;5.530;2023-02-17T09:41:28;101802.06;;;11.57;100.00
59789;BME280;47353;51.614;5.530;2023-02-17T09:43:56;101807.03;;;11.55;99.68
59789;BME280;47353;51.614;5.530;2023-02-17T09:46:29;101809.28;;;11.58;99.34
59789;BME280;47353;51.614;5.530;2023-02-17T09:49:02;101813.16;;;11.57;98.88
59789;BME280;47353;51.614;5.530;2023-02-17T09:51:38;101824.31;;;11.62;99.20
59789;BME280;47353;51.614;5.530;2023-02-17T09:56:38;101808.38;;;11.52;98.85
59789;BME280;47353;51.614;5.530;2023-02-17T09:59:15;101819.88;;;11.61;98.31
59789;BME280;47353;51.614;5.530;2023-02-17T10:01:43;101812.13;;;11.63;97.58
59789;BME280;47353;51.614;5.530;2023-02-17T10:04:17;101819.13;;;11.65;97.43
59789;BME280;47353;51.614;5.530;2023-02-17T10:06:46;101814.31;;;11.61;95.94
59789;BME280;47353;51.614;5.530;2023-02-17T10:09:27;101832.25;;;11.75;95.94
59789;BME280;47353;51.614;5.530;2023-02-17T10:12:02;101825.97;;;11.85;95.27
59789;BME280;47353;51.614;5.530;2023-02-17T10:14:51;101830.31;;;12.02;94.02
59789;BME280;47353;51.614;5.530;2023-02-17T10:20:11;101816.97;;;12.31;92.64
59789;BME280;47353;51.614;5.530;2023-02-17T10:22:39;101805.75;;;12.47;91.47
59789;BME280;47353;51.614;5.530;2023-02-17T10:25:16;101815.38;;;12.76;89.93
59789;BME280;47353;51.614;5.530;2023-02-17T10:27:45;101809.84;;;12.76;88.65
59789;BME280;47353;51.614;5.530;2023-02-17T10:30:27;101830.84;;;12.62;88.34
59789;BME280;47353;51.614;5.530;2023-02-17T10:33:11;101845.75;;;12.51;88.87
59789;BME280;47353;51.614;5.530;2023-02-17T10:35:47;101809.84;;;12.40;88.32
59789;BME280;47353;51.614;5.530;2023-02-17T10:41:14;101846.91;;;12.24;88.71
59789;BME280;47353;51.614;5.530;2023-02-17T10:43:43;101829.09;;;12.20;89.00
59789;BME280;47353;51.614;5.530;2023-02-17T10:46:12;101846.22;;;12.12;90.15
59789;BME280;47353;51.614;5.530;2023-02-17T10:48:48;101855.28;;;12.02;90.41
59789;BME280;47353;51.614;5.530;2023-02-17T10:51:21;101850.84;;;12.01;90.72
59789;BME280;47353;51.614;5.530;2023-02-17T10:54:24;101864.06;;;11.94;91.15
59789;BME280;47353;51.614;5.530;2023-02-17T10:56:54;101852.16;;;11.94;90.89
59789;BME280;47353;51.614;5.530;2023-02-17T10:59:28;101858.19;;;11.91;91.11
59789;BME280;47353;51.614;5.530;2023-02-17T11:01:59;101881.50;;;11.90;91.76
59789;BME280;47353;51.614;5.530;2023-02-17T11:04:43;101820.53;;;11.95;91.46
59789;BME280;47353;51.614;5.530;2023-02-17T11:07:14;101840.16;;;11.88;92.28
59789;BME280;47353;51.614;5.530;2023-02-17T11:09:48;101849.25;;;11.84;92.36
59789;BME280;47353;51.614;5.530;2023-02-17T11:12:20;101858.69;;;11.83;92.95
59789;BME280;47353;51.614;5.530;2023-02-17T11:14:49;101857.78;;;11.77;92.65
59789;BME280;47353;51.614;5.530;2023-02-17T11:17:27;101844.69;;;11.72;93.20
59789;BME280;47353;51.614;5.530;2023-02-17T11:22:40;101822.09;;;11.86;92.75
59789;BME280;47353;51.614;5.530;2023-02-17T11:25:27;101862.59;;;11.87;93.01
59789;BME280;47353;51.614;5.530;2023-02-17T11:27:59;101806.34;;;11.91;92.85
59789;BME280;47353;51.614;5.530;2023-02-17T11:30:27;101835.00;;;11.97;92.31
59789;BME280;47353;51.614;5.530;2023-02-17T11:32:53;101819.75;;;11.99;92.24
59789;BME280;47353;51.614;5.530;2023-02-17T11:35:43;101801.50;;;12.08;92.21
59789;BME280;47353;51.614;5.530;2023-02-17T11:38:16;101808.50;;;12.16;92.06
59789;BME280;47353;51.614;5.530;2023-02-17T11:40:55;101790.78;;;12.17;91.35
59789;BME280;47353;51.614;5.530;2023-02-17T11:43:21;101809.97;;;12.23;91.14
59789;BME280;47353;51.614;5.530;2023-02-17T11:48:55;101801.91;;;12.22;91.61
59789;BME280;47353;51.614;5.530;2023-02-17T11:56:40;101821.38;;;12.27;90.86
59789;BME280;47353;51.614;5.530;2023-02-17T11:59:33;101822.22;;;12.27;91.59
59789;BME280;47353;51.614;5.530;2023-02-17T12:04:50;101839.56;;;12.13;92.63
59789;BME280;47353;51.614;5.530;2023-02-17T12:08:09;101832.34;;;12.12;92.86
59789;BME280;47353;51.614;5.530;2023-02-17T12:13:53;101823.09;;;12.01;93.31
59789;BME280;47353;51.614;5.530;2023-02-17T12:16:44;101826.44;;;12.03;92.85
59789;BME280;47353;51.614;5.530;2023-02-17T12:19:39;101825.03;;;12.01;93.26
59789;BME280;47353;51.614;5.530;2023-02-17T12:22:15;101838.91;;;12.01;93.44
59789;BME280;47353;51.614;5.530;2023-02-17T12:27:45;101869.28;;;12.12;92.40
59789;BME280;47353;51.614;5.530;2023-02-17T12:33:20;101853.97;;;12.10;92.92
59789;BME280;47353;51.614;5.530;2023-02-17T12:36:10;101851.25;;;12.15;92.33
59789;BME280;47353;51.614;5.530;2023-02-17T12:38:48;101851.66;;;12.02;92.81
59789;BME280;47353;51.614;5.530;2023-02-17T12:41:32;101838.84;;;11.96;93.33
59789;BME280;47353;51.614;5.530;2023-02-17T12:44:07;101841.09;;;11.99;93.50
59789;BME280;47353;51.614;5.530;2023-02-17T12:46:44;101846.75;;;12.09;93.32
59789;BME280;47353;51.614;5.530;2023-02-17T12:49:47;101854.16;;;11.98;93.24
59789;BME280;47353;51.614;5.530;2023-02-17T12:52:27;101859.72;;;12.03;93.00
59789;BME280;47353;51.614;5.530;2023-02-17T12:55:02;101870.63;;;12.10;93.24
59789;BME280;47353;51.614;5.530;2023-02-17T12:57:48;101877.81;;;12.06;93.48
59789;BME280;47353;51.614;5.530;2023-02-17T13:00:29;101885.56;;;12.04;93.75
59789;BME280;47353;51.614;5.530;2023-02-17T13:02:58;101885.56;;;12.04;93.48
59789;BME280;47353;51.614;5.530;2023-02-17T13:05:38;101903.94;;;12.10;93.23
59789;BME280;47353;51.614;5.530;2023-02-17T13:08:07;101882.25;;;12.07;93.47
59789;BME280;47353;51.614;5.530;2023-02-17T13:10:38;101876.44;;;12.08;93.47
59789;BME280;47353;51.614;5.530;2023-02-17T13:13:05;101880.06;;;12.09;93.16
59789;BME280;47353;51.614;5.530;2023-02-17T13:15:43;101873.03;;;12.01;93.64
59789;BME280;47353;51.614;5.530;2023-02-17T13:18:28;101890.69;;;12.17;93.41
59789;BME280;47353;51.614;5.530;2023-02-17T13:24:04;101900.56;;;12.08;93.28
59789;BME280;47353;51.614;5.530;2023-02-17T13:26:37;101916.97;;;12.09;92.77
59789;BME280;47353;51.614;5.530;2023-02-17T13:31:53;101906.09;;;12.03;92.79
59789;BME280;47353;51.614;5.530;2023-02-17T13:34:36;101917.13;;;11.98;93.11
59789;BME280;47353;51.614;5.530;2023-02-17T13:39:57;101940.94;;;11.94;94.41
59789;BME280;47353;51.614;5.530;2023-02-17T13:42:39;101939.06;;;11.99;93.62
59789;BME280;47353;51.614;5.530;2023-02-17T13:47:45;101929.78;;;11.89;93.99
59789;BME280;47353;51.614;5.530;2023-02-17T13:50:35;101928.06;;;11.88;93.81
59789;BME280;47353;51.614;5.530;2023-02-17T13:53:23;101931.69;;;11.88;93.85
59789;BME280;47353;51.614;5.530;2023-02-17T13:55:49;101936.94;;;11.85;93.47